Armiesburg, Indiana
Current Conditions -  °F | °C
As of 12:55 PM on Monday 24 Nov 2014 (Local Time) from KPRG Reporting Station
Overcast Overcast  
Wind Chill: -3°   Ceiling: 2100
Heat Index:   Visibility: 10mi
Dew Point:   Wind: 20mph
Humidity: 85%   Direction: 250°WSW
Pressure: 29.6"   Gusts: 28mph
Location:  39.8207°N, 87.3335°W
Report Text: KPRG 241755Z AUTO 25017G24KT 10SM OVC021 03/00 A2960 RMK AO2 T00250002 10080 20025
Loading
Personal Weather Stations






























Interactive Weather Map New forecast layout! Learn more

10-Day Weather Forecast

Advertisements
Track Severe Weather on mobile